Time;durP1;ratioP1;P1;durP2;ratioP2;P2;SDS_P1;SDS_P2;PMS_P1;PMS_P2;Temp;Humidity;BMP_temperature;BMP_pressure;BME280_temperature;BME280_humidity;BME280_pressure;Samples;Min_cycle;Max_cycle;Signal;HPM_P1;HPM_P2
2022/06/03 00:02:30;;;;;;;12.15;9.25;;;;;;;10.67;77.30;100874.97;2661974;87;21571;-92
2022/06/03 00:07:07;;;;;;;15.83;12.13;;;;;;;10.74;77.60;100875.38;2594219;88;21624;-91
2022/06/03 00:11:36;;;;;;;17.95;14.58;;;;;;;10.70;78.25;100878.27;2520934;92;21130;-85
2022/06/03 00:16:06;;;;;;;13.38;10.35;;;;;;;10.73;78.42;100878.53;2524426;92;21071;-88
2022/06/03 00:20:20;;;;;;;16.45;11.20;;;;;;;10.74;77.45;100884.69;2515963;91;21121;-89
2022/06/03 00:24:58;;;;;;;15.43;10.25;;;;;;;10.76;76.90;100884.96;2488591;95;21776;-90
2022/06/03 00:29:37;;;;;;;15.05;10.18;;;;;;;10.76;75.99;100880.11;2501101;93;21172;-90
2022/06/03 00:34:10;;;;;;;13.15;8.83;;;;;;;10.65;76.07;100882.22;2493010;93;21692;-90
2022/06/03 00:38:42;;;;;;;9.08;7.42;;;;;;;10.50;77.01;100885.52;2482163;94;21108;-89
2022/06/03 00:43:11;;;;;;;7.85;6.37;;;;;;;10.23;78.32;100882.03;2509698;91;21246;-91
2022/06/03 00:47:30;;;;;;;10.93;6.87;;;;;;;10.13;78.83;100880.50;2521566;90;21126;-89
2022/06/03 00:51:54;;;;;;;8.33;6.78;;;;;;;10.19;78.91;100878.36;2562309;90;21453;-91
2022/06/03 00:56:01;;;;;;;6.80;4.72;;;;;;;10.22;78.35;100874.15;2568398;91;21174;-88
2022/06/03 01:00:17;;;;;;;12.45;5.55;;;;;;;10.22;77.91;100866.17;2554677;88;21048;-91
2022/06/03 01:04:36;;;;;;;12.03;6.40;;;;;;;10.20;77.94;100868.95;2718633;85;21078;-89
2022/06/03 01:09:07;;;;;;;12.15;6.62;;;;;;;9.96;81.58;100876.84;2685367;85;21086;-89
2022/06/03 01:13:23;;;;;;;7.08;5.83;;;;;;;9.78;83.29;100868.36;2663801;88;21151;-91
2022/06/03 01:17:57;;;;;;;4.73;4.40;;;;;;;9.77;83.05;100863.52;2644212;87;21151;-91
2022/06/03 01:22:24;;;;;;;6.65;5.20;;;;;;;9.81;82.38;100859.68;2655780;87;21083;-90
2022/06/03 01:27:05;;;;;;;8.43;5.12;;;;;;;9.90;81.72;100858.69;2664681;87;21190;-91
2022/06/03 01:31:27;;;;;;;7.28;5.85;;;;;;;9.99;81.39;100858.02;2627619;88;21127;-92
2022/06/03 01:35:46;;;;;;;5.72;5.15;;;;;;;10.03;79.85;100852.89;2653169;87;21625;-92
2022/06/03 01:40:36;;;;;;;10.10;6.03;;;;;;;10.04;79.00;100854.59;2673069;87;21051;-91
2022/06/03 01:45:04;;;;;;;7.15;6.12;;;;;;;10.04;78.59;100851.93;2763006;85;21067;-89
2022/06/03 01:49:36;;;;;;;10.35;5.70;;;;;;;10.00;78.48;100851.75;2747944;84;21738;-90
2022/06/03 01:54:17;;;;;;;6.55;5.83;;;;;;;9.99;78.07;100864.67;2784302;84;21714;-90
2022/06/03 01:58:35;;;;;;;7.60;6.15;;;;;;;9.90;78.03;100866.16;2738308;84;21067;-90
2022/06/03 02:03:10;;;;;;;7.75;5.45;;;;;;;9.81;78.70;100864.99;2747596;83;21091;-90
2022/06/03 02:07:25;;;;;;;7.87;5.87;;;;;;;9.72;77.90;100862.50;2732318;84;21050;-91
2022/06/03 02:11:59;;;;;;;11.00;6.22;;;;;;;9.67;78.46;100862.47;2715368;85;21101;-92
2022/06/03 02:16:15;;;;;;;8.38;6.35;;;;;;;9.66;77.71;100867.41;2785926;83;21070;-90
2022/06/03 02:20:47;;;;;;;11.57;5.80;;;;;;;9.63;78.55;100855.17;2752084;84;21502;-90
2022/06/03 02:25:03;;;;;;;6.95;5.00;;;;;;;9.53;80.16;100849.64;2759989;84;21568;-90
2022/06/03 02:34:51;;;;;;;7.90;7.10;;;;;;;9.28;79.91;100853.11;2725551;84;21656;-91
2022/06/03 02:39:07;;;;;;;9.10;8.18;;;;;;;9.27;79.54;100853.61;2744736;84;21146;-90
2022/06/03 02:43:43;;;;;;;6.17;4.00;;;;;;;9.23;79.38;100863.20;2714530;85;21047;-87
2022/06/03 02:48:13;;;;;;;10.32;6.03;;;;;;;9.18;78.10;100860.84;2739348;83;21625;-91
2022/06/03 02:52:37;;;;;;;10.38;6.62;;;;;;;9.16;77.85;100862.75;2748540;85;21767;-90
2022/06/03 02:57:04;;;;;;;7.45;5.45;;;;;;;9.20;77.71;100865.57;2741396;83;21184;-90
2022/06/03 03:01:11;;;;;;;;;;;;;;;8.98;78.93;100876.78;2731182;84;21031;-90
2022/06/03 03:05:37;;;;;;;8.10;5.62;;;;;;;8.95;80.10;100875.66;2768857;83;20218;-90
2022/06/03 03:10:04;;;;;;;7.62;5.67;;;;;;;9.02;79.80;100878.73;2771247;83;21030;-90
2022/06/03 03:14:57;;;;;;;11.80;4.92;;;;;;;9.05;76.71;100879.89;2781986;83;21634;-91
2022/06/03 03:19:39;;;;;;;9.50;6.30;;;;;;;8.91;76.07;100879.44;2677758;86;21106;-91
2022/06/03 03:24:13;;;;;;;5.10;4.33;;;;;;;8.88;76.48;100883.16;2808788;81;21124;-89
2022/06/03 03:28:28;;;;;;;5.10;4.65;;;;;;;8.79;76.74;100879.77;2694958;86;21201;-91
2022/06/03 03:32:53;;;;;;;7.97;6.58;;;;;;;8.77;78.43;100883.00;2664964;87;21066;-89
2022/06/03 03:37:25;;;;;;;7.28;5.92;;;;;;;8.93;79.13;100880.19;2673069;87;21622;-88
2022/06/03 03:42:20;;;;;;;9.10;6.28;;;;;;;9.19;79.46;100881.13;2677619;87;21693;-90
2022/06/03 03:47:00;;;;;;;22.25;6.50;;;;;;;9.43;79.53;100889.72;2664543;87;21047;-90
2022/06/03 03:51:33;;;;;;;6.30;5.20;;;;;;;9.56;80.92;100891.92;2670376;88;21134;-92
2022/06/03 03:55:54;;;;;;;9.43;6.47;;;;;;;9.79;82.29;100881.52;2681847;87;21175;-91
2022/06/03 04:00:28;;;;;;;10.55;6.90;;;;;;;10.04;82.58;100886.95;2765949;83;21621;-87
2022/06/03 04:04:53;;;;;;;9.38;7.20;;;;;;;10.34;82.65;100891.91;2779886;84;21578;-90
2022/06/03 04:09:38;;;;;;;11.65;7.97;;;;;;;10.51;83.21;100894.70;2769746;84;21063;-90
2022/06/03 04:14:16;;;;;;;21.87;15.25;;;;;;;10.89;82.95;100891.56;2769777;83;21634;-91
2022/06/03 04:18:50;;;;;;;14.35;9.13;;;;;;;11.35;83.67;100887.74;2775098;83;21031;-92
2022/06/03 04:23:32;;;;;;;14.58;9.30;;;;;;;12.25;88.85;100882.22;2784759;83;21081;-87
2022/06/03 04:28:29;;;;;;;33.45;23.50;;;;;;;14.14;88.61;100883.94;2780802;83;21086;-89
2022/06/03 04:33:09;;;;;;;14.13;10.95;;;;;;;16.10;82.83;100885.00;2745616;83;21710;-89
2022/06/03 04:37:31;;;;;;;9.45;8.20;;;;;;;17.44;69.73;100895.33;2766635;83;21090;-90
2022/06/03 04:42:20;;;;;;;13.13;6.60;;;;;;;18.44;69.33;100890.02;2761602;84;21088;-89
2022/06/03 04:47:01;;;;;;;9.70;7.05;;;;;;;19.40;65.49;100894.59;2767053;84;20993;-88
2022/06/03 04:51:34;;;;;;;8.58;6.37;;;;;;;20.67;61.97;100897.11;2773597;83;21091;-89
2022/06/03 04:56:19;;;;;;;14.15;6.83;;;;;;;21.81;58.36;100887.47;2755119;84;21179;-88
2022/06/03 05:00:37;;;;;;;9.00;6.62;;;;;;;22.71;55.85;100889.27;2739953;83;21128;-90
2022/06/03 05:05:03;;;;;;;11.05;6.40;;;;;;;23.55;53.62;100891.86;2756154;83;21107;-88
2022/06/03 05:09:14;;;;;;;;;;;;;;;24.02;51.28;100885.41;2759907;83;21090;-89
2022/06/03 05:13:48;;;;;;;6.00;5.40;;;;;;;24.44;49.91;100884.55;2738151;84;20272;-89
2022/06/03 05:18:30;;;;;;;8.70;5.53;;;;;;;24.78;49.02;100884.16;2762390;83;21069;-84
2022/06/03 05:23:07;;;;;;;10.38;6.12;;;;;;;24.74;48.07;100893.21;2751067;84;21070;-88
2022/06/03 05:28:01;;;;;;;11.22;6.53;;;;;;;24.99;47.59;100895.38;2738465;84;21040;-89
2022/06/03 05:32:40;;;;;;;9.38;6.90;;;;;;;25.38;47.22;100888.28;2758163;85;21019;-90
2022/06/03 05:37:03;;;;;;;6.60;6.00;;;;;;;25.74;46.42;100886.17;2675619;86;21050;-90
2022/06/03 05:46:25;;;;;;;6.58;5.50;;;;;;;26.26;47.06;100882.71;2679880;85;21073;-90
2022/06/03 05:51:03;;;;;;;6.65;5.37;;;;;;;26.46;45.72;100877.18;2614444;88;21103;-90
2022/06/03 05:55:22;;;;;;;6.65;6.00;;;;;;;26.60;44.72;100883.91;2617814;89;21567;-87
2022/06/03 05:59:53;;;;;;;10.32;5.65;;;;;;;26.61;44.99;100876.89;2613608;89;21076;-88
2022/06/03 06:04:41;;;;;;;8.83;5.53;;;;;;;26.43;46.03;100868.05;2617611;89;22331;-88
2022/06/03 06:09:18;;;;;;;8.33;6.72;;;;;;;25.86;48.15;100874.63;2620061;89;22044;-87
2022/06/03 06:13:52;;;;;;;7.87;6.92;;;;;;;25.52;47.67;100878.25;2649940;87;21496;-88
2022/06/03 06:18:21;;;;;;;13.45;7.03;;;;;;;25.11;50.04;100873.83;2730063;85;21071;-90
2022/06/03 06:22:27;;;;;;;7.58;6.78;;;;;;;25.64;49.00;100869.45;2677279;87;21123;-86
2022/06/03 06:27:28;;;;;;;7.22;6.53;;;;;;;25.26;49.43;100868.20;2732510;86;21119;-89
2022/06/03 06:31:35;;;;;;;12.65;7.00;;;;;;;24.91;49.40;100869.20;2713531;86;21059;-90
2022/06/03 06:35:42;;;;;;;8.20;6.75;;;;;;;25.36;49.79;100869.96;2705388;86;21091;-83
2022/06/03 06:40:23;;;;;;;8.95;7.67;;;;;;;25.59;49.59;100872.80;2670593;86;21103;-86
2022/06/03 06:44:49;;;;;;;10.98;5.00;;;;;;;26.18;48.73;100874.79;2693996;86;21071;-86
2022/06/03 06:49:12;;;;;;;7.58;5.85;;;;;;;26.29;48.68;100871.91;2753708;83;29567;-90
2022/06/03 06:53:21;;;;;;;4.17;3.77;;;;;;;26.32;48.51;100866.84;2654587;87;21151;-88
2022/06/03 06:57:30;;;;;;;3.60;3.30;;;;;;;26.37;46.54;100872.50;2684067;86;21173;-89
2022/06/03 07:01:55;;;;;;;43.02;9.10;;;;;;;26.00;47.91;100868.11;2673125;87;21508;-90
2022/06/03 07:06:06;;;;;;;4.47;2.83;;;;;;;25.66;46.07;100868.70;2636203;87;21248;-88
2022/06/03 07:10:19;;;;;;;3.20;2.92;;;;;;;25.33;47.96;100857.28;2677375;87;21130;-85
2022/06/03 07:14:25;;;;;;;5.20;3.05;;;;;;;25.35;46.63;100855.18;2665950;87;21074;-90
2022/06/03 07:23:26;;;;;;;15.63;9.65;;;;;;;25.11;47.48;100838.44;2667516;87;21094;-88
2022/06/03 07:27:44;;;;;;;10.25;6.08;;;;;;;25.05;48.44;100836.03;2615061;88;21189;-89
2022/06/03 07:32:06;;;;;;;7.83;4.28;;;;;;;25.15;47.90;100834.25;2700115;85;21073;-86
2022/06/03 07:36:16;;;;;;;4.75;2.83;;;;;;;25.08;48.36;100827.98;2694365;86;21058;-87
2022/06/03 07:40:29;;;;;;;4.10;3.67;;;;;;;25.12;48.09;100827.87;2704577;87;21027;-90
2022/06/03 07:45:09;;;;;;;13.08;5.53;;;;;;;24.94;47.75;100821.16;2683252;87;21083;-86
2022/06/03 07:49:11;;;;;;;4.30;3.90;;;;;;;25.17;48.06;100811.77;2663415;87;21149;-84
2022/06/03 07:53:32;;;;;;;6.22;3.87;;;;;;;25.51;47.68;100806.31;2724609;85;21007;-90
2022/06/03 07:57:33;;;;;;;4.12;3.52;;;;;;;25.49;46.12;100802.42;2781596;83;21059;-87
2022/06/03 08:01:42;;;;;;;4.97;2.87;;;;;;;25.37;47.50;100794.58;2713183;86;21654;-91
2022/06/03 08:05:50;;;;;;;4.17;3.77;;;;;;;25.63;47.21;100795.59;2695921;87;21104;-89
2022/06/03 08:14:11;;;;;;;7.97;3.65;;;;;;;25.44;45.82;100788.58;2661047;87;21064;-89
2022/06/03 08:18:16;;;;;;;8.35;4.45;;;;;;;25.55;46.79;100796.66;2745754;85;21135;-90
2022/06/03 08:22:22;;;;;;;3.72;2.50;;;;;;;25.62;47.03;100793.92;2758218;83;21063;-90
2022/06/03 08:26:27;;;;;;;4.75;4.30;;;;;;;25.82;45.82;100782.94;2759365;84;21026;-89
2022/06/03 08:30:29;;;;;;;3.85;2.80;;;;;;;26.03;46.14;100777.73;2748502;85;21177;-86
2022/06/03 08:34:52;;;;;;;3.05;2.75;;;;;;;26.14;45.40;100778.94;2697424;87;21048;-91
2022/06/03 08:38:58;;;;;;;4.17;2.00;;;;;;;26.10;45.30;100776.34;2676528;87;21063;-90
2022/06/03 08:43:08;;;;;;;1.90;1.75;;;;;;;26.22;46.16;100772.42;2676007;87;21082;-90
2022/06/03 08:47:48;;;;;;;5.00;2.83;;;;;;;26.23;45.23;100772.19;2685678;87;21051;-89
2022/06/03 08:52:10;;;;;;;1.60;1.50;;;;;;;26.44;43.56;100779.75;2681105;87;21062;-89
2022/06/03 08:56:37;;;;;;;14.87;4.60;;;;;;;26.39;43.03;100775.45;2664449;87;21087;-90
2022/06/03 09:00:50;;;;;;;1.62;1.20;;;;;;;26.37;43.82;100775.70;2705110;87;21047;-90
2022/06/03 09:04:59;;;;;;;2.30;0.75;;;;;;;26.48;43.26;100773.30;2695029;86;21040;-89
2022/06/03 09:09:21;;;;;;;1.00;0.90;;;;;;;26.53;41.07;100774.87;2702088;86;21198;-89
2022/06/03 09:13:49;;;;;;;1.62;1.10;;;;;;;26.54;42.16;100777.05;2680356;87;21075;-87
2022/06/03 09:18:19;;;;;;;2.60;1.40;;;;;;;26.54;42.16;100769.72;2744680;84;21377;-87
2022/06/03 09:22:25;;;;;;;1.35;1.02;;;;;;;26.63;42.17;100760.73;2751401;84;21011;-88
2022/06/03 09:26:40;;;;;;;5.58;1.82;;;;;;;26.60;42.35;100763.88;2674382;86;21060;-89
2022/06/03 09:30:44;;;;;;;5.47;2.27;;;;;;;26.59;41.37;100764.42;2667411;87;21083;-88
2022/06/03 09:35:02;;;;;;;1.35;1.17;;;;;;;26.63;40.73;100754.73;2692689;87;21154;-87
2022/06/03 09:39:17;;;;;;;0.82;0.82;;;;;;;26.59;41.00;100757.61;2697056;87;21115;-87
2022/06/03 09:43:23;;;;;;;10.30;2.22;;;;;;;26.78;40.78;100756.31;2675005;88;21558;-87
2022/06/03 09:47:25;;;;;;;1.65;1.52;;;;;;;26.72;42.28;100751.72;2659949;87;21570;-90
2022/06/03 09:55:59;;;;;;;2.15;0.98;;;;;;;26.71;40.24;100744.59;2739879;84;21619;-86
2022/06/03 10:00:21;;;;;;;1.00;0.90;;;;;;;26.80;39.51;100737.27;2726835;85;21083;-88
2022/06/03 10:04:23;;;;;;;0.93;0.85;;;;;;;26.75;39.52;100740.39;2735770;84;21551;-89
2022/06/03 10:08:28;;;;;;;3.33;0.60;;;;;;;26.68;40.22;100739.59;2770504;83;21039;-86
2022/06/03 10:12:50;;;;;;;3.25;0.80;;;;;;;26.71;40.52;100735.05;2710330;85;22007;-88
2022/06/03 10:16:52;;;;;;;2.83;1.72;;;;;;;26.81;41.17;100749.86;2692658;86;21130;-86
2022/06/03 10:20:58;;;;;;;1.52;1.00;;;;;;;26.85;39.62;100740.73;2682455;87;21079;-88
2022/06/03 10:24:59;;;;;;;7.60;1.17;;;;;;;26.81;40.76;100737.58;2693358;87;21068;-90
2022/06/03 10:29:14;;;;;;;1.32;1.10;;;;;;;26.69;39.68;100739.89;2660869;87;21126;-88
2022/06/03 10:33:22;;;;;;;1.55;0.90;;;;;;;26.81;40.31;100734.84;2743418;84;21059;-91
2022/06/03 10:37:26;;;;;;;2.37;0.72;;;;;;;26.79;39.56;100734.23;2741777;84;21046;-90
2022/06/03 10:41:40;;;;;;;3.42;0.68;;;;;;;26.91;38.91;100725.37;2748313;84;21105;-88
2022/06/03 10:45:41;;;;;;;2.08;0.93;;;;;;;26.97;40.18;100722.28;2754714;84;21076;-89
2022/06/03 10:49:59;;;;;;;2.00;0.85;;;;;;;27.04;39.24;100717.58;2727079;85;21051;-88
2022/06/03 11:02:41;;;;;;;5.20;1.15;;;;;;;27.34;38.28;100695.83;2657454;88;21461;-89
2022/06/03 11:06:43;;;;;;;4.12;1.30;;;;;;;27.24;38.56;100691.45;2683344;87;21083;-87
2022/06/03 11:10:50;;;;;;;0.90;0.90;;;;;;;27.23;37.60;100693.33;2639635;88;21136;-88
2022/06/03 11:14:51;;;;;;;1.60;1.07;;;;;;;27.36;38.14;100687.42;2633843;88;21253;-87
2022/06/03 11:18:53;;;;;;;2.55;1.02;;;;;;;27.35;38.29;100685.20;2591526;88;21165;-89
2022/06/03 11:22:56;;;;;;;1.98;0.88;;;;;;;27.37;38.08;100679.53;2647179;88;21187;-89
2022/06/03 11:26:58;;;;;;;1.00;0.90;;;;;;;27.26;40.14;100677.55;2670900;87;21120;-90
2022/06/03 11:31:20;;;;;;;0.68;0.68;;;;;;;27.43;37.99;100662.77;2619113;87;21086;-90
2022/06/03 11:35:33;;;;;;;1.20;0.72;;;;;;;27.37;37.59;100661.23;2617214;89;22424;-90
2022/06/03 11:39:45;;;;;;;0.72;0.72;;;;;;;27.23;39.37;100660.56;2671129;87;21100;-89
2022/06/03 11:44:03;;;;;;;0.70;0.70;;;;;;;27.05;39.27;100649.12;2666059;87;21064;-88
2022/06/03 11:48:32;;;;;;;3.58;1.77;;;;;;;27.01;39.29;100647.88;2676849;87;21060;-87
2022/06/03 11:52:33;;;;;;;0.70;0.70;;;;;;;27.02;40.53;100639.17;2661872;87;21059;-90
2022/06/03 11:56:36;;;;;;;1.92;1.00;;;;;;;27.09;38.67;100635.83;2668635;87;21088;-89
2022/06/03 12:00:45;;;;;;;0.88;0.88;;;;;;;27.21;38.34;100619.52;2678300;87;21116;-90
2022/06/03 12:04:55;;;;;;;0.57;0.57;;;;;;;27.30;38.25;100611.84;2663519;87;21103;-88
2022/06/03 12:09:26;;;;;;;1.10;1.00;;;;;;;27.27;39.46;100607.70;2686477;86;21107;-89
2022/06/03 12:13:31;;;;;;;1.62;0.98;;;;;;;27.39;39.57;100611.85;2679079;86;21131;-90
2022/06/03 12:17:33;;;;;;;1.15;0.90;;;;;;;27.39;38.55;100603.66;2640587;87;21050;-90
2022/06/03 12:21:43;;;;;;;1.17;0.90;;;;;;;27.43;39.69;100592.56;2685791;86;21099;-91
2022/06/03 12:25:57;;;;;;;0.95;0.88;;;;;;;27.50;40.02;100591.93;2706852;87;21708;-88
2022/06/03 12:30:20;;;;;;;0.93;0.90;;;;;;;27.59;39.02;100580.73;2690605;85;21051;-88
2022/06/03 12:34:26;;;;;;;2.15;1.02;;;;;;;27.69;39.93;100566.50;2693025;87;21142;-91
2022/06/03 12:38:36;;;;;;;2.05;0.80;;;;;;;27.61;40.19;100567.14;2683414;87;21455;-90
2022/06/03 12:42:40;;;;;;;1.15;0.82;;;;;;;27.55;40.84;100565.87;2653645;86;21004;-90
2022/06/03 12:46:43;;;;;;;;;;;;;;;27.59;40.54;100558.87;2630418;87;22087;-87
2022/06/03 12:51:19;;;;;;;48.15;8.95;;;;;;;27.75;40.37;100555.99;2679849;87;20154;-88
2022/06/03 12:55:37;;;;;;;;;;;;;;;27.60;39.97;100553.70;2600867;90;21103;-90
2022/06/03 12:59:55;;;;;;;1.32;1.22;;;;;;;27.80;39.24;100545.19;2597807;89;20118;-90
2022/06/03 13:03:54;;;;;;;1.07;0.98;;;;;;;27.87;40.35;100539.62;2640072;88;21098;-90
2022/06/03 13:08:07;;;;;;;6.25;1.95;;;;;;;27.98;39.97;100537.45;2685105;86;21073;-88
2022/06/03 13:12:22;;;;;;;1.27;0.80;;;;;;;27.92;39.61;100539.22;2690512;85;21132;-89
2022/06/03 13:16:35;;;;;;;3.62;1.67;;;;;;;27.91;39.71;100512.14;2676407;86;21113;-86
2022/06/03 13:20:51;;;;;;;1.15;0.82;;;;;;;27.74;39.75;100508.72;2666557;86;21089;-90
2022/06/03 13:25:18;;;;;;;1.67;1.40;;;;;;;27.71;39.92;100502.89;2651768;86;21171;-91
2022/06/03 13:29:55;;;;;;;1.75;1.17;;;;;;;27.69;39.70;100497.64;2705220;84;21039;-91
2022/06/03 13:34:11;;;;;;;4.92;1.40;;;;;;;27.80;40.85;100499.58;2755023;83;21048;-86
2022/06/03 13:38:24;;;;;;;2.70;1.42;;;;;;;27.79;40.13;100492.97;2784652;84;21028;-90
2022/06/03 13:42:59;;;;;;;2.47;1.27;;;;;;;27.86;39.72;100478.67;2706006;86;21106;-90
2022/06/03 13:47:04;;;;;;;1.52;1.10;;;;;;;28.00;40.76;100480.63;2668180;86;21105;-89
2022/06/03 13:51:18;;;;;;;;;;;;;;;28.08;40.86;100476.72;2737189;84;21099;-87
2022/06/03 13:55:44;;;;;;;1.47;1.07;;;;;;;28.21;39.93;100467.45;2751118;84;20133;-90
2022/06/03 13:59:47;;;;;;;3.65;1.15;;;;;;;28.25;40.49;100465.91;2752482;84;21092;-89
2022/06/03 14:04:03;;;;;;;4.47;2.27;;;;;;;28.28;40.54;100476.36;2784408;84;21157;-88
2022/06/03 14:08:13;;;;;;;1.92;1.47;;;;;;;28.17;40.22;100472.56;2750041;84;21083;-90
2022/06/03 14:12:37;;;;;;;3.40;2.83;;;;;;;28.22;40.71;100461.77;2719469;84;21013;-90
2022/06/03 14:16:47;;;;;;;3.42;1.98;;;;;;;28.23;40.70;100470.78;2733254;83;21081;-91
2022/06/03 14:20:52;;;;;;;2.77;0.95;;;;;;;28.43;41.03;100470.94;2775255;83;21084;-92
2022/06/03 14:25:03;;;;;;;;;;;;;;;28.62;40.72;100468.33;2759137;84;21079;-90
2022/06/03 14:29:10;;;;;;;5.87;1.95;;;;;;;28.60;40.25;100455.98;2763531;84;20221;-90
2022/06/03 14:33:13;;;;;;;2.83;1.22;;;;;;;28.48;40.33;100451.88;2753709;82;21138;-85
2022/06/03 14:37:23;;;;;;;1.70;1.32;;;;;;;28.43;42.29;100426.64;2792771;82;21104;-88
2022/06/03 14:41:29;;;;;;;3.90;2.00;;;;;;;28.43;42.29;100426.64;2756408;83;21107;-91
2022/06/03 14:45:36;;;;;;;1.45;1.30;;;;;;;28.48;40.81;100447.78;2779711;82;21031;-88
2022/06/03 14:49:52;;;;;;;3.08;1.80;;;;;;;28.48;41.45;100436.84;2703730;85;21015;-88
2022/06/03 14:53:58;;;;;;;3.60;1.47;;;;;;;28.29;40.86;100412.38;2760225;83;21059;-86
2022/06/03 14:58:05;;;;;;;1.32;1.07;;;;;;;28.29;40.86;100412.38;2714724;85;21031;-87
2022/06/03 15:02:26;;;;;;;1.50;1.30;;;;;;;28.29;41.07;100441.09;2775354;83;21058;-89
2022/06/03 15:06:42;;;;;;;3.33;2.30;;;;;;;28.30;40.92;100435.11;2670717;87;21091;-89
2022/06/03 15:10:49;;;;;;;2.58;1.20;;;;;;;28.49;42.48;100442.60;2663300;86;21590;-88
2022/06/03 15:14:50;;;;;;;1.32;1.22;;;;;;;28.45;40.93;100435.44;2688930;86;21064;-84
2022/06/03 15:18:52;;;;;;;1.35;1.05;;;;;;;28.53;40.89;100419.70;2675224;87;21055;-84
2022/06/03 15:22:57;;;;;;;3.25;1.90;;;;;;;28.53;40.89;100419.70;2673953;86;21074;-91
2022/06/03 15:26:59;;;;;;;2.30;1.70;;;;;;;28.26;41.01;100423.81;2665426;86;21000;-91
2022/06/03 15:31:07;;;;;;;7.70;2.20;;;;;;;28.26;41.01;100423.81;2631376;88;21103;-91
2022/06/03 15:35:13;;;;;;;1.30;1.10;;;;;;;28.28;42.01;100408.54;2616703;88;21238;-85
2022/06/03 15:39:33;;;;;;;4.20;3.05;;;;;;;28.31;42.35;100396.59;2624456;88;21168;-89
2022/06/03 15:43:45;;;;;;;1.35;1.20;;;;;;;28.08;41.77;100367.36;2755952;83;21137;-91
2022/06/03 15:47:47;;;;;;;9.88;3.15;;;;;;;28.06;42.30;100405.86;2774910;84;21037;-83
2022/06/03 15:51:49;;;;;;;4.85;2.00;;;;;;;28.02;42.19;100396.48;2780790;84;21151;-82
2022/06/03 15:55:59;;;;;;;7.12;2.40;;;;;;;27.91;42.73;100398.70;2780417;84;21032;-87
2022/06/03 16:00:20;;;;;;;3.22;2.15;;;;;;;27.77;43.05;100410.39;2651896;88;21636;-90
2022/06/03 16:04:33;;;;;;;4.53;2.20;;;;;;;27.63;43.81;100416.63;2634794;87;21134;-90
2022/06/03 16:08:58;;;;;;;2.62;2.05;;;;;;;27.46;44.26;100419.20;2640645;87;21101;-87
2022/06/03 16:13:16;;;;;;;3.03;2.73;;;;;;;27.42;44.43;100415.29;2614263;88;21191;-88
2022/06/03 16:17:23;;;;;;;2.40;1.50;;;;;;;27.45;44.74;100405.25;2661472;87;21109;-87
2022/06/03 16:21:48;;;;;;;2.52;1.70;;;;;;;27.56;43.71;100398.17;2652256;87;21109;-89
2022/06/03 16:26:10;;;;;;;2.87;1.70;;;;;;;27.60;44.16;100378.31;2660044;87;21098;-87
2022/06/03 16:30:22;;;;;;;2.98;1.37;;;;;;;27.50;43.48;100381.60;2646206;87;21130;-90
2022/06/03 16:34:55;;;;;;;5.12;2.30;;;;;;;27.37;43.93;100373.66;2675884;86;21070;-96
2022/06/03 16:39:14;;;;;;;3.50;1.57;;;;;;;27.20;44.63;100368.03;2732211;85;21055;-87
2022/06/03 16:43:58;;;;;;;1.55;1.45;;;;;;;26.98;45.42;100356.85;2765364;82;21059;-88
2022/06/03 16:48:08;;;;;;;6.87;1.90;;;;;;;26.87;45.27;100358.48;2787243;82;21046;-85
2022/06/03 16:52:15;;;;;;;2.60;2.00;;;;;;;26.80;45.90;100355.81;2790936;82;21115;-87
2022/06/03 16:56:33;;;;;;;3.27;1.55;;;;;;;26.73;46.19;100336.81;2763239;84;21093;-88
2022/06/03 17:00:36;;;;;;;3.40;2.05;;;;;;;26.66;46.39;100334.72;2787180;82;21099;-90
2022/06/03 17:04:43;;;;;;;2.02;1.80;;;;;;;26.54;46.69;100333.84;2771011;84;21170;-88
2022/06/03 17:08:55;;;;;;;3.25;2.22;;;;;;;26.45;47.04;100333.33;2782993;84;21073;-88
2022/06/03 17:13:00;;;;;;;3.08;2.27;;;;;;;26.40;47.15;100326.38;2805845;82;21623;-90
2022/06/03 17:17:19;;;;;;;2.27;1.98;;;;;;;26.32;47.73;100320.16;2769713;82;21709;-90
2022/06/03 17:21:53;;;;;;;2.87;1.62;;;;;;;26.26;48.18;100317.00;2775131;82;21158;-87
2022/06/03 17:26:01;;;;;;;3.02;1.77;;;;;;;26.18;48.73;100323.59;2759070;84;21077;-91
2022/06/03 17:30:07;;;;;;;3.20;1.82;;;;;;;26.12;49.09;100314.09;2752432;83;21014;-89
2022/06/03 17:34:46;;;;;;;2.47;2.20;;;;;;;26.06;49.18;100316.69;2773737;83;21083;-90
2022/06/03 17:39:38;;;;;;;2.58;2.30;;;;;;;25.98;49.72;100321.09;2762664;84;21075;-88
2022/06/03 17:44:02;;;;;;;5.20;2.33;;;;;;;25.91;50.14;100322.53;2770253;82;22369;-86
2022/06/03 17:48:32;;;;;;;3.52;2.45;;;;;;;25.79;50.22;100314.28;2788648;82;21085;-88
2022/06/03 17:57:51;;;;;;;5.05;3.27;;;;;;;25.51;50.94;100312.88;2740095;84;21030;-89
2022/06/03 18:02:15;;;;;;;3.90;3.40;;;;;;;25.35;51.24;100310.18;2727369;86;21037;-89
2022/06/03 18:06:34;;;;;;;3.53;3.13;;;;;;;25.23;51.81;100319.61;2708107;86;21067;-91
2022/06/03 18:10:39;;;;;;;5.72;3.15;;;;;;;25.15;51.96;100326.67;2650770;86;21766;-88
2022/06/03 18:15:06;;;;;;;6.70;2.62;;;;;;;25.05;52.45;100322.27;2622925;89;21080;-91
2022/06/03 18:19:12;;;;;;;4.22;3.25;;;;;;;24.95;53.08;100322.75;2604583;89;21079;-90
2022/06/03 18:23:57;;;;;;;4.22;2.87;;;;;;;24.85;53.42;100324.60;2598082;88;21065;-89
2022/06/03 18:28:28;;;;;;;2.70;2.30;;;;;;;24.70;53.80;100327.61;2651617;87;21118;-90
2022/06/03 18:33:21;;;;;;;4.50;2.67;;;;;;;24.54;54.10;100331.65;2627231;88;21601;-90
2022/06/03 18:37:55;;;;;;;3.98;2.30;;;;;;;24.37;54.54;100338.98;2627129;88;21052;-90
2022/06/03 18:42:04;;;;;;;14.40;4.67;;;;;;;24.23;54.56;100337.36;2696334;87;21080;-88
2022/06/03 18:46:17;;;;;;;32.55;6.92;;;;;;;24.07;55.48;100333.22;2663989;86;21079;-89
2022/06/03 18:50:59;;;;;;;42.65;7.30;;;;;;;23.86;55.71;100331.59;2712120;87;21116;-90
2022/06/03 18:55:17;;;;;;;3.30;2.70;;;;;;;23.56;56.75;100332.05;2703246;87;21040;-90
2022/06/03 18:59:36;;;;;;;3.77;2.62;;;;;;;23.28;56.61;100331.23;2691043;86;21076;-91
2022/06/03 19:03:55;;;;;;;4.85;3.27;;;;;;;23.11;56.96;100332.15;2714744;84;21683;-89
2022/06/03 19:08:14;;;;;;;6.10;3.47;;;;;;;22.95;57.39;100337.47;2723981;85;21119;-92
2022/06/03 19:12:44;;;;;;;5.47;3.75;;;;;;;22.73;57.78;100337.64;2723324;86;21064;-88
2022/06/03 19:17:18;;;;;;;3.62;3.33;;;;;;;22.54;58.01;100340.59;2696364;85;21134;-90
2022/06/03 19:21:47;;;;;;;4.67;3.72;;;;;;;22.38;58.82;100343.95;2685881;86;21048;-88
2022/06/03 19:25:49;;;;;;;7.85;4.35;;;;;;;22.18;59.09;100349.80;2702010;86;21072;-84
2022/06/03 19:29:58;;;;;;;4.58;4.03;;;;;;;22.01;59.35;100352.02;2678095;86;21100;-87
2022/06/03 19:34:02;;;;;;;7.72;4.25;;;;;;;21.86;59.71;100357.56;2711611;87;21645;-87
2022/06/03 19:38:42;;;;;;;4.90;4.33;;;;;;;21.68;60.26;100358.91;2688161;86;21066;-88
2022/06/03 19:43:00;;;;;;;6.75;4.12;;;;;;;21.47;60.93;100366.01;2693912;87;21114;-85
2022/06/03 19:47:38;;;;;;;7.15;4.37;;;;;;;21.28;61.15;100370.20;2688557;87;21099;-88
2022/06/03 19:52:21;;;;;;;6.42;5.45;;;;;;;21.10;61.45;100370.14;2695580;87;21135;-89
2022/06/03 19:56:30;;;;;;;5.10;4.42;;;;;;;21.04;61.56;100368.75;2690401;87;21595;-95
2022/06/03 20:00:49;;;;;;;5.42;4.92;;;;;;;20.96;61.62;100366.48;2690971;86;21094;-91
2022/06/03 20:04:55;;;;;;;7.65;5.55;;;;;;;20.94;61.68;100355.02;2677719;87;21096;-87
2022/06/03 20:09:25;;;;;;;10.28;5.92;;;;;;;20.91;61.79;100350.00;2697415;87;21036;-91
2022/06/03 20:13:37;;;;;;;5.47;4.85;;;;;;;20.85;61.96;100350.78;2579706;90;21075;-91
2022/06/03 20:17:44;;;;;;;7.33;5.50;;;;;;;20.79;62.18;100356.91;2578755;90;21075;-92
2022/06/03 20:21:58;;;;;;;7.87;5.80;;;;;;;20.65;62.61;100350.52;2582657;90;21103;-89
2022/06/03 20:26:20;;;;;;;12.95;7.97;;;;;;;20.53;62.78;100342.08;2570097;90;21079;-91
2022/06/03 20:30:29;;;;;;;11.73;8.63;;;;;;;20.43;63.48;100335.63;2585143;90;21101;-91
2022/06/03 20:34:51;;;;;;;14.85;9.08;;;;;;;20.26;63.86;100333.67;2569665;90;21174;-88
2022/06/03 20:39:06;;;;;;;15.43;10.43;;;;;;;20.11;64.25;100339.91;2556937;90;21075;-82
2022/06/03 20:43:28;;;;;;;10.37;9.17;;;;;;;20.02;64.33;100339.67;2541827;90;21122;-92
2022/06/03 20:47:47;;;;;;;13.18;6.62;;;;;;;19.95;64.43;100341.45;2500217;92;21128;-89